Time;durP1;ratioP1;P1;durP2;ratioP2;P2;SDS_P1;SDS_P2;PMS_P1;PMS_P2;Temp;Humidity;BMP_temperature;BMP_pressure;BME280_temperature;BME280_humidity;BME280_pressure;Samples;Min_cycle;Max_cycle;Signal;HPM_P1;HPM_P2
2022/08/22 04:45:23;;;;;;;7.57;2.58;;;;;;;;;;6301590;22;20019;-86
2022/08/22 04:58:32;;;;;;;9.60;2.97;;;;;;;;;;6222159;23;20122;-85
2022/08/22 05:35:17;;;;;;;7.07;2.47;;;;;;;;;;6150389;23;20123;-85
2022/08/22 05:48:13;;;;;;;7.78;2.78;;;;;;;;;;6051397;23;20038;-88
2022/08/22 05:51:58;;;;;;;7.63;3.22;;;;;;;;;;5953047;24;20099;-86
2022/08/22 05:56:28;;;;;;;9.07;2.97;;;;;;;;;;6053915;23;20023;-83
2022/08/22 06:00:53;;;;;;;6.82;2.60;;;;;;;;;;5918976;24;20634;-85
2022/08/22 06:05:01;;;;;;;7.85;2.45;;;;;;;;;;5825375;24;20027;-85
2022/08/22 06:08:00;;;;;;;11.23;2.88;;;;;;;;;;5792143;24;20039;-84
2022/08/22 06:11:31;;;;;;;5.53;2.33;;;;;;;;;;5821766;24;20057;-85
2022/08/22 06:14:46;;;;;;;7.90;2.75;;;;;;;;;;5853093;24;20030;-85
2022/08/22 06:17:42;;;;;;;12.48;2.90;;;;;;;;;;5871441;24;20038;-84
2022/08/22 06:21:08;;;;;;;10.32;2.55;;;;;;;;;;5793587;24;20035;-85
2022/08/22 06:24:54;;;;;;;7.53;2.70;;;;;;;;;;5796204;24;20357;-85
2022/08/22 06:27:55;;;;;;;7.97;2.40;;;;;;;;;;5792858;24;20031;-84
2022/08/22 06:32:13;;;;;;;6.90;2.33;;;;;;;;;;5844094;24;20060;-85
2022/08/22 06:44:44;;;;;;;7.55;2.63;;;;;;;;;;5889495;24;20078;-88
2022/08/22 08:16:28;;;;;;;7.05;2.00;;;;;;;;;;6298563;22;20068;-88
2022/08/22 08:19:46;;;;;;;5.10;1.80;;;;;;;;;;6277435;22;20046;-88
2022/08/22 12:02:03;;;;;;;5.88;1.85;;;;;;;;;;6307946;22;20022;-85
2022/08/22 12:05:44;;;;;;;6.38;1.48;;;;;;;;;;6165542;23;20090;-86
2022/08/22 12:10:35;;;;;;;4.32;1.42;;;;;;;;;;6214479;23;20556;-88
2022/08/22 12:56:05;;;;;;;5.10;1.60;;;;;;;;;;6220894;23;20027;-85
2022/08/22 13:01:09;;;;;;;5.40;1.55;;;;;;;;;;6075021;23;20019;-85
2022/08/22 13:05:22;;;;;;;6.15;1.60;;;;;;;;;;5950340;24;20021;-84
2022/08/22 13:08:37;;;;;;;2.80;1.33;;;;;;;;;;5956761;24;20029;-84
2022/08/22 13:11:20;;;;;;;4.53;1.52;;;;;;;;;;5955241;24;20395;-84
2022/08/22 13:14:08;;;;;;;5.53;1.60;;;;;;;;;;5903655;24;20438;-84
2022/08/22 13:17:06;;;;;;;5.55;1.65;;;;;;;;;;5956236;24;20388;-84
2022/08/22 13:20:17;;;;;;;6.70;1.63;;;;;;;;;;5959924;24;20032;-86
2022/08/22 13:23:05;;;;;;;2.83;1.35;;;;;;;;;;5942754;24;20465;-85
2022/08/22 13:25:52;;;;;;;4.38;1.50;;;;;;;;;;5976281;24;20115;-84
2022/08/22 13:28:48;;;;;;;3.50;1.33;;;;;;;;;;5955726;24;20135;-85
2022/08/22 13:31:49;;;;;;;;;;;;;;;;;;5954161;24;20021;-85
2022/08/22 13:34:58;;;;;;;6.30;1.50;;;;;;;;;;5957724;23;19932;-84
2022/08/22 13:37:43;;;;;;;4.65;1.45;;;;;;;;;;6058312;23;20025;-85
2022/08/22 14:36:42;;;;;;;7.57;1.70;;;;;;;;;;6326571;22;20490;-87
2022/08/22 14:40:36;;;;;;;3.15;1.30;;;;;;;;;;6210362;23;20091;-86
2022/08/22 16:46:09;;;;;;;6.40;1.70;;;;;;;;;;5958905;24;20035;-86
2022/08/22 16:50:49;;;;;;;3.35;1.50;;;;;;;;;;5951489;24;20085;-85
2022/08/22 17:20:24;;;;;;;6.00;1.90;;;;;;;;;;6265495;22;20028;-86
2022/08/22 18:37:31;;;;;;;6.65;2.00;;;;;;;;;;5986877;24;20085;-85
2022/08/22 18:40:21;;;;;;;8.50;2.22;;;;;;;;;;5985324;24;20111;-85
2022/08/22 18:44:31;;;;;;;8.88;2.28;;;;;;;;;;5981228;24;20035;-85
2022/08/22 18:48:51;;;;;;;;;;;;;;;;;;5954288;24;20023;-85
2022/08/22 18:56:31;;;;;;;9.05;2.20;;;;;;;;;;5783059;24;20043;-85
2022/08/22 18:59:10;;;;;;;6.82;2.35;;;;;;;;;;5762042;24;20054;-85
2022/08/22 19:01:56;;;;;;;7.07;2.17;;;;;;;;;;5759542;24;20031;-85
2022/08/22 19:04:25;;;;;;;6.85;2.30;;;;;;;;;;5783304;24;20039;-86
2022/08/22 19:07:36;;;;;;;8.93;2.28;;;;;;;;;;5797436;24;20171;-86
2022/08/22 19:10:33;;;;;;;8.18;2.20;;;;;;;;;;5792960;24;20026;-86
2022/08/22 19:13:24;;;;;;;8.13;1.80;;;;;;;;;;5854910;24;20024;-86
2022/08/22 19:34:43;;;;;;;4.85;2.00;;;;;;;;;;6062561;23;20033;-85
2022/08/22 19:42:02;;;;;;;6.60;2.15;;;;;;;;;;6067733;23;20853;-85
2022/08/22 19:45:25;;;;;;;8.52;2.03;;;;;;;;;;6056924;23;20073;-85
2022/08/22 19:49:02;;;;;;;6.68;2.38;;;;;;;;;;6086174;23;20030;-85
2022/08/22 19:52:51;;;;;;;5.00;1.80;;;;;;;;;;6027716;23;20031;-85
2022/08/22 19:57:24;;;;;;;6.50;2.40;;;;;;;;;;6094367;23;20104;-84
2022/08/22 20:01:02;;;;;;;7.43;2.03;;;;;;;;;;6036850;23;20052;-83
2022/08/22 20:04:22;;;;;;;7.85;2.00;;;;;;;;;;6012719;23;20468;-83
2022/08/22 20:11:52;;;;;;;6.05;2.10;;;;;;;;;;6027096;23;20031;-84
2022/08/22 20:15:18;;;;;;;10.70;2.05;;;;;;;;;;6028693;23;20102;-84
2022/08/22 20:18:04;;;;;;;6.40;2.08;;;;;;;;;;5985103;23;20077;-84
2022/08/22 20:21:42;;;;;;;5.72;2.10;;;;;;;;;;6017316;23;20059;-84
2022/08/22 20:25:50;;;;;;;5.25;1.70;;;;;;;;;;6114202;23;20033;-84
2022/08/22 20:28:53;;;;;;;4.18;1.88;;;;;;;;;;6084890;23;20104;-84
2022/08/22 20:32:03;;;;;;;7.65;2.03;;;;;;;;;;6170544;23;20124;-85
2022/08/22 20:34:57;;;;;;;3.92;1.50;;;;;;;;;;6184736;23;20029;-85
2022/08/22 20:38:21;;;;;;;5.78;1.85;;;;;;;;;;6116494;23;20068;-85
2022/08/22 20:41:22;;;;;;;4.30;1.90;;;;;;;;;;6069660;23;20030;-85
2022/08/22 20:44:23;;;;;;;4.68;1.83;;;;;;;;;;6115700;23;20055;-83
2022/08/22 20:47:10;;;;;;;4.07;1.80;;;;;;;;;;6093258;23;20080;-86
2022/08/22 21:03:46;;;;;;;3.78;1.65;;;;;;;;;;5988415;24;20080;-85
2022/08/22 21:06:31;;;;;;;4.47;1.98;;;;;;;;;;5932009;24;20032;-85
2022/08/22 21:12:13;;;;;;;5.85;2.00;;;;;;;;;;6056458;23;20053;-85
2022/08/22 21:14:47;;;;;;;7.15;2.03;;;;;;;;;;6021397;23;20030;-85
2022/08/22 21:23:04;;;;;;;6.25;1.80;;;;;;;;;;6128308;23;20398;-85
2022/08/22 21:26:28;;;;;;;4.32;1.50;;;;;;;;;;6130039;23;20066;-85
2022/08/22 21:29:14;;;;;;;3.90;1.60;;;;;;;;;;6127908;23;20033;-86
2022/08/22 21:32:46;;;;;;;5.70;1.70;;;;;;;;;;6056508;23;20130;-84
2022/08/22 21:35:56;;;;;;;4.03;1.65;;;;;;;;;;6093937;23;20034;-84
2022/08/22 21:39:10;;;;;;;4.40;1.73;;;;;;;;;;6157057;23;20080;-84
2022/08/22 21:41:59;;;;;;;2.92;1.60;;;;;;;;;;6134205;23;20104;-85
2022/08/22 21:44:38;;;;;;;3.65;1.65;;;;;;;;;;6135901;23;20145;-84
2022/08/22 21:47:21;;;;;;;4.13;1.63;;;;;;;;;;6137309;23;20032;-85
2022/08/22 21:51:25;;;;;;;5.60;1.65;;;;;;;;;;6136373;23;20056;-84
2022/08/22 21:54:38;;;;;;;3.42;1.25;;;;;;;;;;6139827;23;20040;-85
2022/08/22 21:57:14;;;;;;;;;;;;;;;;;;6158350;23;20059;-85
2022/08/22 22:00:01;;;;;;;6.50;1.70;;;;;;;;;;6155758;23;19924;-84
2022/08/22 22:02:40;;;;;;;5.13;1.60;;;;;;;;;;6178249;23;20025;-85
2022/08/22 22:05:14;;;;;;;3.85;1.60;;;;;;;;;;6219176;23;20099;-85
2022/08/22 22:07:46;;;;;;;4.32;1.58;;;;;;;;;;6218528;23;20024;-84
2022/08/22 22:10:21;;;;;;;4.43;2.00;;;;;;;;;;6181898;23;20028;-85
2022/08/22 22:12:53;;;;;;;4.90;1.90;;;;;;;;;;6182835;23;20048;-84
2022/08/22 22:15:24;;;;;;;6.30;1.88;;;;;;;;;;6182292;23;20790;-84
2022/08/22 22:18:15;;;;;;;5.32;1.70;;;;;;;;;;6217362;23;20025;-85
2022/08/22 22:20:47;;;;;;;6.55;1.90;;;;;;;;;;6234481;22;20024;-84
2022/08/22 22:23:28;;;;;;;6.40;1.90;;;;;;;;;;6221963;22;20051;-84
2022/08/22 22:26:01;;;;;;;5.20;1.70;;;;;;;;;;6244979;22;20548;-85
2022/08/22 22:28:47;;;;;;;7.15;1.70;;;;;;;;;;6254634;22;20020;-85
2022/08/22 22:31:17;;;;;;;5.88;1.80;;;;;;;;;;6230626;22;20090;-85
2022/08/22 22:33:45;;;;;;;5.82;1.77;;;;;;;;;;6219986;22;20034;-85
2022/08/22 22:36:21;;;;;;;4.70;1.75;;;;;;;;;;6229471;22;20051;-84
2022/08/22 22:38:54;;;;;;;5.72;1.80;;;;;;;;;;6256085;22;20027;-84
2022/08/22 22:41:28;;;;;;;4.50;1.80;;;;;;;;;;6229732;22;20023;-84
2022/08/22 22:43:56;;;;;;;5.20;1.60;;;;;;;;;;6281880;22;20628;-84
2022/08/22 22:46:25;;;;;;;3.42;1.80;;;;;;;;;;6194118;22;20059;-84
2022/08/22 22:48:55;;;;;;;5.18;2.10;;;;;;;;;;6255747;22;20023;-84
2022/08/22 22:51:30;;;;;;;6.10;1.65;;;;;;;;;;6221923;22;20038;-84
2022/08/22 22:54:06;;;;;;;4.30;1.73;;;;;;;;;;6231014;22;20016;-84
2022/08/22 22:56:38;;;;;;;6.47;1.73;;;;;;;;;;6279837;22;20020;-84
2022/08/22 22:59:07;;;;;;;4.78;2.03;;;;;;;;;;6228416;22;20019;-84
2022/08/22 23:02:00;;;;;;;7.55;1.65;;;;;;;;;;6294062;22;20717;-87
2022/08/22 23:04:34;;;;;;;3.88;1.75;;;;;;;;;;6254070;22;20019;-88
2022/08/22 23:07:04;;;;;;;4.95;1.80;;;;;;;;;;6289753;22;20015;-88
2022/08/22 23:09:33;;;;;;;6.53;2.08;;;;;;;;;;6317519;22;20121;-88
2022/08/22 23:12:42;;;;;;;6.13;2.20;;;;;;;;;;6317111;22;20015;-87
2022/08/22 23:15:58;;;;;;;5.43;2.08;;;;;;;;;;6316422;22;20007;-87
2022/08/22 23:18:32;;;;;;;6.88;2.35;;;;;;;;;;6265399;22;20113;-87
2022/08/22 23:21:13;;;;;;;6.50;2.13;;;;;;;;;;6289341;22;20445;-87
2022/08/22 23:23:47;;;;;;;4.93;2.00;;;;;;;;;;6279374;22;20023;-87
2022/08/22 23:26:16;;;;;;;4.97;2.03;;;;;;;;;;6289845;22;20125;-87
2022/08/22 23:29:06;;;;;;;3.33;1.90;;;;;;;;;;6289597;22;20082;-87
2022/08/22 23:32:01;;;;;;;5.10;2.00;;;;;;;;;;6316490;22;20078;-87
2022/08/22 23:34:32;;;;;;;6.35;1.77;;;;;;;;;;6264744;22;20016;-87
2022/08/22 23:37:03;;;;;;;5.85;1.70;;;;;;;;;;6265016;22;20102;-88
2022/08/22 23:39:34;;;;;;;6.82;1.98;;;;;;;;;;6253503;22;20027;-87
2022/08/22 23:42:05;;;;;;;3.95;2.10;;;;;;;;;;6316853;22;20019;-87
2022/08/22 23:44:34;;;;;;;7.72;2.35;;;;;;;;;;6279550;22;20054;-87
2022/08/22 23:47:09;;;;;;;3.75;1.83;;;;;;;;;;6288658;22;20019;-87
2022/08/22 23:49:38;;;;;;;4.15;1.83;;;;;;;;;;6316416;22;20019;-87
2022/08/22 23:52:08;;;;;;;4.10;1.92;;;;;;;;;;6264287;22;20023;-86
2022/08/22 23:54:40;;;;;;;6.10;2.08;;;;;;;;;;6289749;22;20102;-87
2022/08/22 23:57:08;;;;;;;5.13;1.80;;;;;;;;;;6263654;22;20012;-87
